Time;durP1;ratioP1;P1;durP2;ratioP2;P2;SDS_P1;SDS_P2;PMS_P1;PMS_P2;Temp;Humidity;BMP_temperature;BMP_pressure;BME280_temperature;BME280_humidity;BME280_pressure;Samples;Min_cycle;Max_cycle;Signal;HPM_P1;HPM_P2
2021/10/12 00:00:38;;;;;;;7.60;2.22;;;;;;;9.96;90.04;102207.19;5014288;28;20030;-77
2021/10/12 00:03:03;;;;;;;7.53;2.10;;;;;;;9.96;90.05;102199.41;5009132;28;20032;-77
2021/10/12 00:05:29;;;;;;;8.60;2.55;;;;;;;9.98;89.93;102202.69;5007452;28;20065;-76
2021/10/12 00:07:55;;;;;;;9.07;3.03;;;;;;;10.01;89.77;102196.47;5011276;28;20033;-76
2021/10/12 00:10:21;;;;;;;6.63;2.50;;;;;;;9.98;90.00;102200.09;5015641;28;20477;-77
2021/10/12 00:12:47;;;;;;;12.93;2.70;;;;;;;9.99;90.07;102201.78;5016702;28;20030;-77
2021/10/12 00:15:12;;;;;;;11.00;2.97;;;;;;;10.02;90.01;102205.88;5018159;28;20446;-78
2021/10/12 00:17:38;;;;;;;14.55;2.30;;;;;;;9.99;90.06;102200.94;5018776;28;20076;-77
2021/10/12 00:20:06;;;;;;;16.27;3.20;;;;;;;10.06;89.59;102202.13;5010495;28;20031;-77
2021/10/12 00:22:31;;;;;;;6.80;2.45;;;;;;;10.10;89.97;102194.00;5018774;28;20026;-77
2021/10/12 00:24:57;;;;;;;9.27;2.83;;;;;;;9.99;90.44;102196.59;5015094;28;20034;-78
2021/10/12 00:27:22;;;;;;;13.93;3.55;;;;;;;10.11;90.51;102195.66;5000210;28;20050;-77
2021/10/12 00:29:48;;;;;;;11.18;3.13;;;;;;;10.01;90.73;102191.28;5013190;28;20039;-78
2021/10/12 00:32:14;;;;;;;20.98;3.92;;;;;;;9.98;90.73;102188.94;5017821;28;20041;-77
2021/10/12 00:34:39;;;;;;;10.75;3.35;;;;;;;9.93;91.24;102197.06;4994456;28;20040;-77
2021/10/12 00:37:05;;;;;;;8.98;3.38;;;;;;;9.93;91.26;102187.50;5010562;28;20065;-77
2021/10/12 00:39:30;;;;;;;15.55;3.53;;;;;;;9.92;91.66;102190.22;4997564;28;20076;-76
2021/10/12 00:41:57;;;;;;;9.35;3.20;;;;;;;9.86;91.86;102188.94;5013729;28;20026;-76
2021/10/12 00:44:23;;;;;;;11.10;3.53;;;;;;;9.89;92.09;102188.69;5012478;28;20030;-76
2021/10/12 00:46:48;;;;;;;12.50;3.40;;;;;;;9.85;91.94;102181.25;5022632;28;20044;-76
2021/10/12 00:49:14;;;;;;;9.00;3.53;;;;;;;9.86;92.27;102183.75;5010257;28;20076;-76
2021/10/12 00:51:39;;;;;;;14.30;3.95;;;;;;;9.87;92.66;102177.63;5014702;28;20030;-76
2021/10/12 00:54:05;;;;;;;12.27;3.33;;;;;;;9.89;92.62;102178.34;5011231;28;20034;-76
2021/10/12 00:56:31;;;;;;;19.38;3.80;;;;;;;9.88;92.61;102179.25;5012150;28;20027;-76
2021/10/12 00:58:56;;;;;;;17.00;3.92;;;;;;;9.89;92.79;102172.34;5026204;28;20388;-77
2021/10/12 01:01:22;;;;;;;12.07;4.25;;;;;;;9.83;92.99;102165.00;5019964;28;20221;-77
2021/10/12 01:03:47;;;;;;;9.18;3.75;;;;;;;9.83;93.10;102154.66;5011313;28;20045;-77
2021/10/12 01:06:13;;;;;;;14.70;3.63;;;;;;;9.83;93.15;102158.09;5014372;28;20513;-77
2021/10/12 01:08:39;;;;;;;9.73;3.55;;;;;;;9.83;93.33;102154.66;5011703;28;20041;-76
2021/10/12 01:11:04;;;;;;;14.25;4.72;;;;;;;9.82;93.56;102153.03;5018936;28;20033;-77
2021/10/12 01:13:31;;;;;;;15.88;3.38;;;;;;;9.84;93.48;102148.53;5016561;28;20037;-77
2021/10/12 01:15:56;;;;;;;9.45;3.60;;;;;;;9.83;93.33;102155.50;5016981;28;20022;-76
2021/10/12 01:18:22;;;;;;;14.18;3.60;;;;;;;9.84;93.12;102149.34;5010016;28;20042;-76
2021/10/12 01:20:52;;;;;;;14.23;4.18;;;;;;;9.82;93.22;102147.84;5010819;28;20045;-76
2021/10/12 01:23:18;;;;;;;11.45;3.53;;;;;;;9.82;93.37;102140.06;5014575;28;20486;-77
2021/10/12 01:25:44;;;;;;;9.82;3.63;;;;;;;9.82;93.40;102142.66;5017196;28;20030;-76
2021/10/12 01:28:09;;;;;;;14.60;4.55;;;;;;;9.80;93.49;102142.78;5010196;28;20038;-76
2021/10/12 01:30:39;;;;;;;14.02;4.28;;;;;;;9.80;93.38;102139.38;5011045;28;20030;-76
2021/10/12 01:33:05;;;;;;;8.35;4.18;;;;;;;9.82;93.51;102137.47;5029523;28;20483;-79
2021/10/12 01:35:31;;;;;;;17.88;5.18;;;;;;;9.86;93.53;102139.69;5015277;28;20030;-76
2021/10/12 01:37:57;;;;;;;14.75;4.40;;;;;;;9.84;93.09;102144.19;5010429;28;20395;-76
2021/10/12 01:40:22;;;;;;;15.52;5.05;;;;;;;9.86;93.01;102131.09;5014879;28;20041;-76
2021/10/12 01:42:48;;;;;;;13.43;4.22;;;;;;;9.81;93.17;102128.84;5012717;28;20034;-76
2021/10/12 01:45:14;;;;;;;9.00;4.10;;;;;;;9.75;93.33;102132.75;5009291;28;20049;-76
2021/10/12 01:47:41;;;;;;;17.52;4.63;;;;;;;9.73;93.69;102126.03;5014385;28;20124;-76
2021/10/12 01:50:09;;;;;;;17.52;5.50;;;;;;;9.78;93.73;102123.94;5014822;28;20080;-77
2021/10/12 01:52:35;;;;;;;17.17;5.60;;;;;;;9.84;93.22;102128.63;5010550;28;20044;-76
2021/10/12 01:55:00;;;;;;;12.15;4.78;;;;;;;9.84;93.10;102115.69;5014281;28;20026;-77
2021/10/12 01:57:27;;;;;;;15.50;6.20;;;;;;;9.82;93.48;102114.16;5008106;28;20623;-77
2021/10/12 01:59:52;;;;;;;14.45;5.35;;;;;;;9.86;93.12;102112.97;4991132;28;20041;-77
2021/10/12 02:02:18;;;;;;;11.75;5.60;;;;;;;9.81;93.26;102112.50;5015908;28;20037;-77
2021/10/12 02:04:44;;;;;;;10.02;5.38;;;;;;;9.82;93.13;102112.38;5011054;28;20029;-77
2021/10/12 02:07:09;;;;;;;16.30;5.22;;;;;;;9.75;93.50;102109.44;5014167;28;20037;-76
2021/10/12 02:09:36;;;;;;;13.13;5.65;;;;;;;9.69;93.59;102107.31;5015329;28;20605;-76
2021/10/12 02:12:02;;;;;;;16.73;7.65;;;;;;;9.75;93.98;102108.63;5014352;28;20022;-77
2021/10/12 02:14:27;;;;;;;13.48;6.10;;;;;;;9.72;93.80;102088.16;5016953;28;20487;-77
2021/10/12 02:16:53;;;;;;;12.60;5.70;;;;;;;9.78;93.72;102085.06;5013508;28;20025;-77
2021/10/12 02:19:19;;;;;;;16.73;6.00;;;;;;;9.71;93.53;102081.31;5013626;28;20041;-76
2021/10/12 02:21:44;;;;;;;10.63;5.57;;;;;;;9.71;94.01;102089.09;5008847;28;20041;-77
2021/10/12 02:24:10;;;;;;;12.57;6.22;;;;;;;9.64;94.21;102078.34;5016820;28;20124;-77
2021/10/12 02:26:36;;;;;;;23.15;5.93;;;;;;;9.65;94.47;102072.25;5012017;28;20065;-77
2021/10/12 02:29:02;;;;;;;13.85;5.70;;;;;;;9.64;94.61;102069.78;5015746;28;20029;-77
2021/10/12 02:31:28;;;;;;;16.38;5.75;;;;;;;9.64;94.40;102056.81;5028736;28;20038;-76
2021/10/12 02:33:54;;;;;;;16.75;5.97;;;;;;;9.61;94.62;102049.31;5014748;28;20061;-76
2021/10/12 02:36:19;;;;;;;12.25;5.53;;;;;;;9.60;94.51;102061.41;5008883;28;20030;-76
2021/10/12 02:38:45;;;;;;;10.95;5.57;;;;;;;9.61;94.57;102057.06;5009510;28;20034;-76
2021/10/12 02:41:10;;;;;;;18.40;6.18;;;;;;;9.61;94.78;102057.91;4992402;28;20021;-76
2021/10/12 02:43:36;;;;;;;14.20;5.68;;;;;;;9.61;94.51;102049.31;5012089;28;20395;-76
2021/10/12 02:46:02;;;;;;;13.82;6.07;;;;;;;9.62;94.88;102046.56;5009330;28;20026;-76
2021/10/12 02:48:27;;;;;;;12.25;6.00;;;;;;;9.62;94.51;102044.00;5010824;28;20055;-76
2021/10/12 02:50:52;;;;;;;15.60;6.00;;;;;;;9.64;94.54;102036.09;5005676;28;20532;-76
2021/10/12 02:53:18;;;;;;;16.00;6.97;;;;;;;9.64;94.23;102036.91;5008228;28;20034;-75
2021/10/12 02:55:44;;;;;;;20.95;7.13;;;;;;;9.62;94.17;102038.81;4997376;28;20036;-75
2021/10/12 02:58:10;;;;;;;15.05;7.38;;;;;;;9.63;94.20;102031.88;5008078;28;20037;-75
2021/10/12 03:00:36;;;;;;;19.90;7.55;;;;;;;9.63;93.83;102037.06;5022552;28;20533;-75
2021/10/12 03:03:02;;;;;;;14.77;7.43;;;;;;;9.62;93.71;102025.84;5010897;28;20033;-75
2021/10/12 03:05:28;;;;;;;17.95;7.90;;;;;;;9.66;93.82;102014.34;5007933;28;20033;-75
2021/10/12 03:07:54;;;;;;;16.02;7.45;;;;;;;9.61;93.69;102007.88;4991525;28;20501;-75
2021/10/12 03:10:19;;;;;;;19.30;8.07;;;;;;;9.59;93.58;102013.16;5008087;28;20088;-75
2021/10/12 03:12:45;;;;;;;21.27;7.80;;;;;;;9.60;93.60;102016.56;5011248;28;20038;-75
2021/10/12 03:15:11;;;;;;;23.05;8.55;;;;;;;9.61;93.71;101997.50;5007726;28;20061;-75
2021/10/12 03:17:36;;;;;;;18.42;8.75;;;;;;;9.58;93.68;102006.34;5005314;28;20400;-74
2021/10/12 03:20:03;;;;;;;24.40;9.13;;;;;;;9.53;93.57;102000.69;5007975;28;20033;-75
2021/10/12 03:22:29;;;;;;;24.98;8.98;;;;;;;9.52;93.83;101997.28;5008936;28;20029;-75
2021/10/12 03:24:54;;;;;;;25.83;9.30;;;;;;;9.54;93.75;101990.22;5012162;28;20032;-74
2021/10/12 03:27:20;;;;;;;21.83;8.40;;;;;;;9.49;93.37;101992.34;5004073;28;20048;-75
2021/10/12 03:29:46;;;;;;;17.35;8.25;;;;;;;9.49;93.27;101994.94;5011522;28;20030;-75
2021/10/12 03:32:11;;;;;;;26.50;9.10;;;;;;;9.47;93.25;101996.81;5015444;28;20034;-75
2021/10/12 03:34:37;;;;;;;20.15;8.38;;;;;;;9.40;93.49;101992.22;4995053;28;20029;-75
2021/10/12 03:37:02;;;;;;;24.60;8.98;;;;;;;9.38;93.85;101994.94;4990929;28;20022;-75
2021/10/12 03:39:28;;;;;;;20.00;8.57;;;;;;;9.40;93.46;101987.88;5008712;28;20038;-74
2021/10/12 03:41:54;;;;;;;26.85;9.45;;;;;;;9.35;93.46;101984.81;5010554;28;20029;-75
2021/10/12 03:44:22;;;;;;;20.33;8.60;;;;;;;9.36;93.24;101983.88;5009393;28;20033;-75
2021/10/12 03:46:48;;;;;;;24.58;8.07;;;;;;;9.32;93.64;101979.88;5015995;28;20088;-75
2021/10/12 03:49:14;;;;;;;21.20;8.20;;;;;;;9.37;93.74;101977.75;5007671;28;20037;-75
2021/10/12 03:51:43;;;;;;;20.70;8.25;;;;;;;9.30;93.54;101976.59;4999649;28;20242;-75
2021/10/12 03:54:10;;;;;;;20.65;7.85;;;;;;;9.27;93.76;101976.84;5015311;28;20592;-75
2021/10/12 03:56:35;;;;;;;16.42;7.43;;;;;;;9.24;94.13;101970.13;5013707;28;20101;-76
2021/10/12 03:59:00;;;;;;;18.15;8.05;;;;;;;9.23;94.17;101968.50;5006854;28;20033;-75
2021/10/12 04:01:26;;;;;;;28.20;8.13;;;;;;;9.25;94.38;101973.53;5017767;28;20037;-75
2021/10/12 04:03:53;;;;;;;19.60;7.45;;;;;;;9.28;94.09;101965.53;5012990;28;20038;-75
2021/10/12 04:06:18;;;;;;;15.13;7.20;;;;;;;9.25;93.93;101968.34;5013973;28;20066;-75
2021/10/12 04:08:43;;;;;;;22.58;7.63;;;;;;;9.30;94.20;101967.03;5011853;28;20056;-74
2021/10/12 04:11:09;;;;;;;18.95;7.35;;;;;;;9.27;93.76;101967.31;5019046;28;20037;-75
2021/10/12 04:13:35;;;;;;;20.33;8.10;;;;;;;9.30;94.08;101961.06;5016779;28;20033;-75
2021/10/12 04:16:00;;;;;;;17.30;7.30;;;;;;;9.27;93.85;101958.72;5018514;28;20493;-75
2021/10/12 04:18:26;;;;;;;22.52;8.63;;;;;;;9.24;94.07;101949.41;5008774;28;20120;-75
2021/10/12 04:20:51;;;;;;;22.02;7.82;;;;;;;9.27;93.83;101953.56;5020094;28;20045;-75
2021/10/12 04:23:18;;;;;;;25.30;7.88;;;;;;;9.28;93.32;101957.75;5010731;28;20034;-75
2021/10/12 04:25:44;;;;;;;17.30;6.63;;;;;;;9.27;93.39;101951.78;5014613;28;20064;-75
2021/10/12 04:28:13;;;;;;;21.60;7.78;;;;;;;9.23;93.74;101945.19;5014925;28;20527;-75
2021/10/12 04:30:40;;;;;;;18.42;6.78;;;;;;;9.22;93.93;101946.13;5012462;28;20147;-75
2021/10/12 04:33:06;;;;;;;15.35;6.43;;;;;;;9.21;94.19;101949.66;5003508;28;20518;-75
2021/10/12 04:35:32;;;;;;;17.13;6.53;;;;;;;9.24;94.14;101951.19;5018781;28;20044;-75
2021/10/12 04:37:58;;;;;;;23.92;6.95;;;;;;;9.30;93.62;101946.34;5005075;28;20034;-75
2021/10/12 04:40:25;;;;;;;22.52;8.57;;;;;;;9.28;93.61;101937.06;5015626;28;20032;-75
2021/10/12 04:42:51;;;;;;;21.83;7.15;;;;;;;9.31;93.65;101929.06;5010156;28;20039;-75
2021/10/12 04:45:16;;;;;;;24.00;6.68;;;;;;;9.35;93.64;101927.88;4994428;28;20033;-75
2021/10/12 04:47:42;;;;;;;21.00;6.72;;;;;;;9.34;93.77;101927.06;5013577;28;20422;-75
2021/10/12 04:50:08;;;;;;;22.05;6.57;;;;;;;9.30;93.77;101919.63;5011128;28;20394;-75
2021/10/12 04:52:33;;;;;;;16.35;6.63;;;;;;;9.28;93.79;101908.59;5027778;28;20394;-75
2021/10/12 04:54:59;;;;;;;21.63;8.10;;;;;;;9.25;93.65;101908.81;5022806;28;20038;-75
2021/10/12 04:57:25;;;;;;;20.95;6.95;;;;;;;9.30;93.58;101925.63;5007251;28;20033;-75
2021/10/12 04:59:50;;;;;;;20.80;7.45;;;;;;;9.23;93.49;101918.47;5018965;28;20041;-75
2021/10/12 05:02:16;;;;;;;16.35;6.55;;;;;;;9.25;93.77;101921.75;5011742;28;20030;-74
2021/10/12 05:04:42;;;;;;;16.48;7.20;;;;;;;9.29;93.73;101923.19;5026530;28;20077;-75
2021/10/12 05:07:08;;;;;;;18.52;6.82;;;;;;;9.25;94.13;101909.66;5016676;28;20041;-74
2021/10/12 05:09:33;;;;;;;16.23;6.43;;;;;;;9.37;93.69;101909.66;5011007;28;20037;-75
2021/10/12 05:11:59;;;;;;;15.77;6.47;;;;;;;9.33;93.37;101907.28;5021041;28;20506;-74
2021/10/12 05:14:25;;;;;;;19.83;6.75;;;;;;;9.38;93.00;101906.94;5012835;28;20025;-75
2021/10/12 05:16:51;;;;;;;22.17;6.60;;;;;;;9.29;93.33;101902.47;5014354;28;20395;-74
2021/10/12 05:19:17;;;;;;;17.25;6.55;;;;;;;9.29;93.58;101897.31;5011950;28;20030;-75
2021/10/12 05:21:43;;;;;;;16.50;5.78;;;;;;;9.41;93.00;101904.09;5018971;28;20044;-75
2021/10/12 05:24:09;;;;;;;31.10;7.25;;;;;;;9.27;93.31;101896.59;5011422;28;20406;-75
2021/10/12 05:26:35;;;;;;;19.13;6.78;;;;;;;9.23;93.67;101900.34;5011584;28;20044;-75
2021/10/12 05:29:00;;;;;;;18.40;6.22;;;;;;;9.24;93.50;101889.06;5006849;28;20133;-74
2021/10/12 05:31:26;;;;;;;21.30;5.75;;;;;;;9.20;93.90;101888.47;5015089;28;20030;-75
2021/10/12 05:33:51;;;;;;;18.92;5.85;;;;;;;9.19;93.66;101896.38;5006806;28;20033;-75
2021/10/12 05:36:17;;;;;;;15.25;6.07;;;;;;;9.25;93.75;101888.09;5013508;28;20534;-75
2021/10/12 05:38:43;;;;;;;14.13;6.45;;;;;;;9.30;93.01;101879.03;5010206;28;20030;-75
2021/10/12 05:41:09;;;;;;;20.02;5.90;;;;;;;9.22;93.36;101875.44;5009982;28;20107;-75
2021/10/12 05:43:35;;;;;;;21.33;6.32;;;;;;;9.19;93.75;101879.06;5010742;28;20038;-75
2021/10/12 05:46:00;;;;;;;18.55;5.90;;;;;;;9.21;93.61;101872.03;4996371;28;20030;-76
2021/10/12 05:48:26;;;;;;;16.17;6.72;;;;;;;9.20;93.57;101874.72;4999641;28;20065;-76
2021/10/12 05:50:52;;;;;;;19.00;6.55;;;;;;;9.32;93.11;101876.34;5019209;28;20040;-75
2021/10/12 05:55:53;;;;;;;17.55;6.35;;;;;;;9.28;93.41;101875.75;5012360;28;20049;-75
2021/10/12 05:58:53;;;;;;;17.35;6.28;;;;;;;9.28;93.01;101870.56;5005997;28;20117;-75
2021/10/12 06:01:11;;;;;;;22.13;6.72;;;;;;;9.22;93.04;101876.25;5003494;28;20526;-76
2021/10/12 06:03:37;;;;;;;14.80;5.40;;;;;;;9.24;93.53;101870.97;5007803;28;20034;-75
2021/10/12 06:06:03;;;;;;;19.88;6.75;;;;;;;9.19;93.63;101867.91;5007837;28;20041;-75
2021/10/12 06:08:30;;;;;;;16.35;6.65;;;;;;;9.32;93.52;101871.16;5009878;28;20057;-75
2021/10/12 06:11:04;;;;;;;20.77;6.45;;;;;;;9.28;93.45;101869.75;5019245;28;20038;-74
2021/10/12 06:13:30;;;;;;;27.63;6.80;;;;;;;9.25;93.87;101870.00;5007435;28;20484;-75
2021/10/12 06:15:56;;;;;;;19.65;6.60;;;;;;;9.25;93.83;101875.16;5028287;28;20037;-75
2021/10/12 06:18:22;;;;;;;20.90;7.53;;;;;;;9.24;93.87;101866.59;5009043;28;20091;-76
2021/10/12 06:20:49;;;;;;;21.33;7.68;;;;;;;9.35;93.35;101870.94;4997516;28;20033;-75
2021/10/12 06:23:15;;;;;;;18.67;6.88;;;;;;;9.35;93.67;101868.34;5026613;28;20046;-75
2021/10/12 06:25:41;;;;;;;20.02;7.25;;;;;;;9.28;93.76;101869.75;5016456;28;20116;-75
2021/10/12 06:28:07;;;;;;;21.30;7.43;;;;;;;9.32;94.10;101874.59;5007527;28;20140;-75
2021/10/12 06:30:33;;;;;;;17.80;7.65;;;;;;;9.35;93.80;101879.50;5011663;28;20080;-75
2021/10/12 06:33:00;;;;;;;25.10;7.22;;;;;;;9.31;93.88;101874.72;5010200;28;20133;-74
2021/10/12 06:35:30;;;;;;;17.65;7.43;;;;;;;9.29;94.17;101868.84;5021669;28;20368;-75
2021/10/12 06:38:00;;;;;;;21.35;7.22;;;;;;;9.34;94.27;101857.16;5003473;28;20026;-75
2021/10/12 06:40:26;;;;;;;14.93;7.05;;;;;;;9.34;93.99;101856.31;5007663;28;20036;-75
2021/10/12 06:42:52;;;;;;;27.23;7.85;;;;;;;9.38;93.95;101862.94;5014432;28;20486;-75
2021/10/12 06:45:19;;;;;;;20.25;7.38;;;;;;;9.34;94.02;101854.59;5015992;28;20030;-75
2021/10/12 06:47:46;;;;;;;21.90;7.70;;;;;;;9.30;94.27;101854.94;4989812;28;20474;-76
2021/10/12 06:50:11;;;;;;;18.10;7.47;;;;;;;9.29;94.53;101858.47;4994032;28;20049;-75
2021/10/12 06:52:37;;;;;;;16.23;7.22;;;;;;;9.28;95.09;101847.28;5009388;28;20117;-76
2021/10/12 06:55:04;;;;;;;18.67;7.10;;;;;;;9.27;95.00;101843.06;5012958;28;20309;-76
2021/10/12 06:57:29;;;;;;;19.42;7.55;;;;;;;9.29;95.31;101845.53;5006493;28;20030;-76
2021/10/12 06:59:55;;;;;;;22.52;8.30;;;;;;;9.38;95.33;101834.47;5022736;28;20123;-75
2021/10/12 07:02:20;;;;;;;19.23;8.85;;;;;;;9.42;95.21;101835.00;5009198;28;20459;-76
2021/10/12 07:04:46;;;;;;;24.70;8.38;;;;;;;9.40;95.20;101837.75;5004403;28;20450;-75
2021/10/12 07:07:11;;;;;;;22.52;8.50;;;;;;;9.50;94.56;101838.63;5014831;28;20104;-75
2021/10/12 07:09:37;;;;;;;17.10;9.13;;;;;;;9.41;94.79;101839.38;5009816;28;20048;-75
2021/10/12 07:12:03;;;;;;;22.60;7.88;;;;;;;9.55;94.54;101825.34;5010091;28;20562;-75
2021/10/12 07:14:31;;;;;;;25.40;8.30;;;;;;;9.46;94.71;101829.47;5012290;28;20021;-75
2021/10/12 07:16:57;;;;;;;21.42;8.55;;;;;;;9.53;94.80;101827.19;5013384;28;20052;-75
2021/10/12 07:19:22;;;;;;;23.08;8.45;;;;;;;9.48;94.68;101821.59;5008154;28;20033;-75
2021/10/12 07:21:48;;;;;;;19.88;7.75;;;;;;;9.55;94.51;101823.56;5009427;28;20053;-75
2021/10/12 07:24:13;;;;;;;32.88;8.95;;;;;;;9.52;94.32;101823.78;5004918;28;20034;-76
2021/10/12 07:26:39;;;;;;;27.27;8.05;;;;;;;9.52;94.17;101816.03;5015529;28;20030;-74
2021/10/12 07:29:05;;;;;;;21.55;7.82;;;;;;;9.58;94.25;101816.47;5007127;28;20029;-75
2021/10/12 07:31:31;;;;;;;20.13;7.40;;;;;;;9.59;94.48;101811.19;4993233;28;20032;-75
2021/10/12 07:33:57;;;;;;;18.25;8.50;;;;;;;9.65;94.58;101815.03;5012282;28;20087;-75
2021/10/12 07:36:22;;;;;;;19.95;8.68;;;;;;;9.61;94.80;101811.88;5009539;28;20018;-75
2021/10/12 07:38:48;;;;;;;19.40;8.73;;;;;;;9.60;94.67;101806.81;5003948;28;20030;-75
2021/10/12 07:41:13;;;;;;;22.65;9.85;;;;;;;9.59;94.56;101806.00;5007709;28;20643;-75
2021/10/12 07:43:39;;;;;;;20.70;9.43;;;;;;;9.63;94.88;101809.97;5009765;28;20116;-75
2021/10/12 07:46:05;;;;;;;24.05;10.18;;;;;;;9.72;94.28;101811.81;5007152;28;20022;-75
2021/10/12 07:48:31;;;;;;;22.08;9.70;;;;;;;9.67;94.55;101795.81;5017411;28;20074;-75
2021/10/12 07:50:56;;;;;;;24.40;11.38;;;;;;;9.75;94.85;101797.78;5010934;28;20038;-76
2021/10/12 07:53:22;;;;;;;38.35;13.00;;;;;;;9.83;94.43;101789.38;5010521;28;20394;-74
2021/10/12 07:55:56;;;;;;;26.77;13.10;;;;;;;9.78;94.40;101801.91;5007793;28;20030;-75
2021/10/12 07:58:22;;;;;;;21.27;10.32;;;;;;;9.69;94.95;101795.72;5014435;28;20095;-75
2021/10/12 08:00:47;;;;;;;21.20;11.65;;;;;;;9.67;95.16;101792.44;5009038;28;20041;-75
2021/10/12 08:03:14;;;;;;;23.27;12.10;;;;;;;9.77;95.53;101792.50;5011553;28;20468;-75
2021/10/12 08:05:40;;;;;;;27.13;12.07;;;;;;;9.71;95.20;101791.22;5010194;28;20034;-76
2021/10/12 08:08:05;;;;;;;23.42;12.15;;;;;;;9.75;95.09;101785.66;5010875;28;20101;-76
2021/10/12 08:10:33;;;;;;;25.95;12.52;;;;;;;9.71;95.32;101789.44;5008380;28;20121;-76
2021/10/12 08:13:02;;;;;;;22.23;11.63;;;;;;;9.76;95.42;101789.09;5011192;28;20735;-76
2021/10/12 08:15:27;;;;;;;25.88;13.57;;;;;;;9.82;95.36;101780.81;5012629;28;20108;-76
2021/10/12 08:17:53;;;;;;;27.38;15.30;;;;;;;9.83;95.22;101779.88;4991454;28;20136;-76
2021/10/12 08:20:19;;;;;;;32.13;15.68;;;;;;;9.87;94.98;101780.41;5013288;28;20057;-76
2021/10/12 08:22:45;;;;;;;30.02;17.00;;;;;;;9.84;95.34;101778.91;5007327;28;20037;-76
2021/10/12 08:25:11;;;;;;;35.63;18.58;;;;;;;9.90;95.25;101772.38;5005741;28;20091;-75
2021/10/12 08:27:38;;;;;;;34.17;17.48;;;;;;;9.96;95.50;101778.81;5008604;28;20068;-75
2021/10/12 08:30:06;;;;;;;33.33;17.73;;;;;;;10.04;95.20;101771.22;5008736;28;20518;-75
2021/10/12 08:32:33;;;;;;;28.25;15.90;;;;;;;9.93;94.62;101766.97;5012733;28;20025;-76
2021/10/12 08:34:58;;;;;;;30.92;15.88;;;;;;;9.84;95.01;101773.72;5011272;28;20499;-75
2021/10/12 08:37:24;;;;;;;36.10;17.80;;;;;;;9.82;95.64;101785.16;5011542;28;20097;-76
2021/10/12 08:39:49;;;;;;;30.70;16.30;;;;;;;9.90;95.60;101782.75;5012506;28;20475;-76
2021/10/12 08:42:29;;;;;;;25.13;15.73;;;;;;;9.96;95.61;101782.22;4995937;28;20029;-76
2021/10/12 08:44:57;;;;;;;28.27;16.50;;;;;;;10.00;95.41;101765.50;5009907;28;20034;-76
2021/10/12 08:47:29;;;;;;;27.38;15.02;;;;;;;9.99;94.87;101766.44;5009221;28;20052;-76
2021/10/12 08:49:57;;;;;;;25.35;15.32;;;;;;;9.94;95.44;101761.66;5026698;28;20030;-76
2021/10/12 08:52:23;;;;;;;30.30;15.93;;;;;;;9.85;95.48;101770.19;5012747;28;20076;-76
2021/10/12 08:54:53;;;;;;;26.15;15.07;;;;;;;9.85;96.07;101764.16;5010890;28;20037;-76
2021/10/12 08:57:32;;;;;;;31.25;15.77;;;;;;;9.86;96.09;101758.06;5010524;28;20042;-76
2021/10/12 09:00:00;;;;;;;23.23;15.07;;;;;;;9.85;95.97;101756.41;5009162;28;20038;-76
2021/10/12 09:02:28;;;;;;;27.85;15.73;;;;;;;10.01;95.95;101755.94;5010501;28;20034;-77
2021/10/12 09:04:54;;;;;;;28.80;15.45;;;;;;;9.96;95.66;101747.75;4987917;28;20039;-76
2021/10/12 09:07:24;;;;;;;28.55;15.23;;;;;;;10.03;95.84;101739.31;5008386;28;20029;-77
2021/10/12 09:09:52;;;;;;;24.25;15.23;;;;;;;10.07;95.88;101742.47;5005762;28;20034;-76
2021/10/12 09:12:18;;;;;;;25.27;14.80;;;;;;;10.11;96.50;101744.69;5009729;28;20173;-76
2021/10/12 09:14:57;;;;;;;27.25;17.25;;;;;;;10.14;96.50;101735.81;5008901;28;20045;-76
2021/10/12 09:17:34;;;;;;;24.85;14.85;;;;;;;10.21;96.92;101733.50;5002641;28;20036;-75
2021/10/12 09:20:21;;;;;;;29.85;15.70;;;;;;;10.18;96.50;101729.44;5009175;28;20025;-76
2021/10/12 09:23:05;;;;;;;26.90;16.50;;;;;;;10.27;96.48;101727.84;5011658;28;20041;-75
2021/10/12 09:25:35;;;;;;;30.77;16.77;;;;;;;10.32;96.15;101725.69;5005313;28;20034;-76
2021/10/12 09:28:01;;;;;;;30.88;16.65;;;;;;;10.40;95.68;101725.84;5010331;28;20561;-75
2021/10/12 09:30:32;;;;;;;28.55;18.50;;;;;;;10.41;96.03;101717.09;4990904;28;20038;-76
2021/10/12 09:33:04;;;;;;;27.50;17.83;;;;;;;10.52;96.04;101721.38;5007239;28;20046;-76
2021/10/12 09:35:30;;;;;;;31.07;18.23;;;;;;;10.57;95.89;101724.41;5003957;28;20054;-76
2021/10/12 09:38:10;;;;;;;30.45;16.95;;;;;;;10.56;95.97;101721.94;5011331;28;20476;-75
2021/10/12 09:40:41;;;;;;;29.50;18.45;;;;;;;10.61;96.04;101719.78;5008970;28;20021;-75
2021/10/12 09:43:06;;;;;;;34.53;18.30;;;;;;;10.57;95.90;101720.97;5013608;28;20087;-75
2021/10/12 09:45:43;;;;;;;32.85;17.95;;;;;;;10.59;96.12;101712.13;5014622;28;20383;-75
2021/10/12 09:48:34;;;;;;;31.50;17.27;;;;;;;10.58;96.20;101713.06;5009812;28;20052;-76
2021/10/12 09:51:14;;;;;;;30.70;18.40;;;;;;;10.59;96.49;101717.31;5017015;28;20501;-75
2021/10/12 09:53:42;;;;;;;30.30;17.50;;;;;;;10.57;96.65;101708.84;5010614;28;20042;-76
2021/10/12 09:56:09;;;;;;;30.92;17.40;;;;;;;10.60;96.33;101716.31;5013854;28;20064;-76
2021/10/12 09:58:35;;;;;;;34.15;16.92;;;;;;;10.68;96.27;101711.31;5012707;28;20238;-76
2021/10/12 10:01:04;;;;;;;29.23;16.45;;;;;;;10.70;96.40;101704.22;5009307;28;20397;-76
2021/10/12 10:03:30;;;;;;;30.88;17.45;;;;;;;10.78;96.34;101705.31;5007213;28;20084;-76
2021/10/12 10:06:02;;;;;;;34.70;16.23;;;;;;;10.91;95.90;101703.28;5010647;28;20030;-76
2021/10/12 10:08:29;;;;;;;29.40;15.93;;;;;;;11.00;95.29;101699.03;5007863;28;20100;-76
2021/10/12 10:10:57;;;;;;;31.80;16.00;;;;;;;11.12;95.22;101692.75;4992668;28;20026;-76
2021/10/12 10:13:26;;;;;;;32.95;17.15;;;;;;;11.32;95.72;101690.13;5009853;28;20402;-75
2021/10/12 10:15:52;;;;;;;27.17;14.00;;;;;;;11.40;95.39;101687.66;5008385;28;20076;-75
2021/10/12 10:18:19;;;;;;;31.55;16.05;;;;;;;11.60;94.84;101691.03;5008913;28;20030;-76
2021/10/12 10:20:52;;;;;;;30.95;14.80;;;;;;;11.61;94.45;101688.28;4994743;28;20042;-75
2021/10/12 10:24:08;;;;;;;28.15;14.52;;;;;;;11.59;94.10;101681.59;5008925;28;20220;-76
2021/10/12 10:26:41;;;;;;;26.92;14.13;;;;;;;11.69;94.38;101680.59;5009108;28;20206;-76
2021/10/12 10:29:16;;;;;;;22.50;13.00;;;;;;;11.69;93.36;101674.59;5009621;28;20037;-76
2021/10/12 10:31:45;;;;;;;21.00;12.68;;;;;;;11.62;93.65;101670.91;5029001;28;20129;-77
2021/10/12 10:34:30;;;;;;;37.90;14.35;;;;;;;11.72;94.01;101673.50;5008576;28;20362;-76
2021/10/12 10:37:17;;;;;;;32.95;14.00;;;;;;;11.67;93.57;101671.31;4993708;28;20441;-76
2021/10/12 10:39:53;;;;;;;23.48;12.73;;;;;;;11.73;93.85;101673.34;5014360;28;20422;-76
2021/10/12 10:42:25;;;;;;;23.80;13.60;;;;;;;11.78;94.43;101673.75;5011722;28;20065;-77
2021/10/12 10:44:56;;;;;;;37.60;18.17;;;;;;;11.74;93.93;101669.00;5027051;28;20131;-76
2021/10/12 10:47:40;;;;;;;35.80;20.08;;;;;;;11.67;94.03;101666.13;5015511;28;20038;-75
2021/10/12 10:50:25;;;;;;;37.53;18.85;;;;;;;11.66;94.07;101659.31;5012564;28;20029;-77
2021/10/12 10:52:54;;;;;;;30.48;18.38;;;;;;;11.64;94.38;101662.03;5005234;28;20041;-75
2021/10/12 10:55:25;;;;;;;30.60;15.38;;;;;;;11.60;94.80;101652.91;5022821;28;20029;-76
2021/10/12 10:58:16;;;;;;;24.08;17.35;;;;;;;11.57;95.04;101653.16;5011737;28;20507;-76
2021/10/12 11:00:54;;;;;;;37.38;27.90;;;;;;;11.56;95.46;101648.94;5003377;28;20045;-76
2021/10/12 11:03:32;;;;;;;37.78;25.02;;;;;;;11.55;95.57;101643.91;5007799;28;21856;-77
2021/10/12 11:06:00;;;;;;;33.25;19.73;;;;;;;11.50;95.58;101639.91;5009376;28;20038;-77
2021/10/12 11:08:28;;;;;;;28.00;17.48;;;;;;;11.52;95.90;101639.78;5018490;28;20509;-76
2021/10/12 11:11:02;;;;;;;32.08;23.10;;;;;;;11.56;95.67;101633.34;4999287;28;20068;-76
2021/10/12 11:13:33;;;;;;;28.35;17.35;;;;;;;11.59;95.85;101629.66;5022077;28;20057;-77
2021/10/12 11:16:00;;;;;;;29.30;17.60;;;;;;;11.64;95.18;101619.63;5014643;28;20507;-75
2021/10/12 11:18:25;;;;;;;28.90;14.13;;;;;;;11.54;95.52;101630.06;5025266;28;20013;-76
2021/10/12 11:20:55;;;;;;;21.20;11.07;;;;;;;11.48;95.40;101622.84;5014275;28;20510;-76
2021/10/12 11:23:42;;;;;;;22.73;9.52;;;;;;;11.46;95.51;101616.97;5019271;28;20491;-77
2021/10/12 11:26:11;;;;;;;26.10;14.20;;;;;;;11.47;95.59;101619.44;5015199;28;20045;-77